sensor_id;sensor_type;location;lat;lon;timestamp;temperature;humidity
13440;DHT22;6792;57.698;11.946;2023-02-28T00:00:32;9.20;47.90
13440;DHT22;6792;57.698;11.946;2023-02-28T00:03:01;9.20;48.50
13440;DHT22;6792;57.698;11.946;2023-02-28T00:05:31;9.20;48.50
13440;DHT22;6792;57.698;11.946;2023-02-28T00:08:00;9.20;47.90
13440;DHT22;6792;57.698;11.946;2023-02-28T00:10:30;9.20;48.50
13440;DHT22;6792;57.698;11.946;2023-02-28T00:13:02;9.20;48.50
13440;DHT22;6792;57.698;11.946;2023-02-28T00:15:32;9.20;49.10
13440;DHT22;6792;57.698;11.946;2023-02-28T00:18:02;9.10;48.50
13440;DHT22;6792;57.698;11.946;2023-02-28T00:20:31;9.10;48.50
13440;DHT22;6792;57.698;11.946;2023-02-28T00:23:00;9.10;48.50
13440;DHT22;6792;57.698;11.946;2023-02-28T00:25:29;9.10;48.50
13440;DHT22;6792;57.698;11.946;2023-02-28T00:27:59;9.10;48.60
13440;DHT22;6792;57.698;11.946;2023-02-28T00:30:28;9.10;48.60
13440;DHT22;6792;57.698;11.946;2023-02-28T00:32:57;9.00;48.60
13440;DHT22;6792;57.698;11.946;2023-02-28T00:35:27;9.00;48.60
13440;DHT22;6792;57.698;11.946;2023-02-28T00:37:56;9.00;48.80
13440;DHT22;6792;57.698;11.946;2023-02-28T00:40:25;9.00;48.60
13440;DHT22;6792;57.698;11.946;2023-02-28T00:42:54;9.00;48.70
13440;DHT22;6792;57.698;11.946;2023-02-28T00:45:23;9.00;48.60
13440;DHT22;6792;57.698;11.946;2023-02-28T00:47:52;8.90;48.70
13440;DHT22;6792;57.698;11.946;2023-02-28T00:50:21;8.90;48.70
13440;DHT22;6792;57.698;11.946;2023-02-28T00:52:50;8.90;48.20
13440;DHT22;6792;57.698;11.946;2023-02-28T00:55:19;8.90;48.20
13440;DHT22;6792;57.698;11.946;2023-02-28T00:57:48;8.90;48.80
13440;DHT22;6792;57.698;11.946;2023-02-28T01:00:18;8.80;48.30
13440;DHT22;6792;57.698;11.946;2023-02-28T01:02:47;8.80;48.80
13440;DHT22;6792;57.698;11.946;2023-02-28T01:05:17;8.80;48.80
13440;DHT22;6792;57.698;11.946;2023-02-28T01:07:48;8.80;48.80
13440;DHT22;6792;57.698;11.946;2023-02-28T01:10:17;8.80;48.80
13440;DHT22;6792;57.698;11.946;2023-02-28T01:12:50;8.80;49.40
13440;DHT22;6792;57.698;11.946;2023-02-28T01:15:19;8.70;48.30
13440;DHT22;6792;57.698;11.946;2023-02-28T01:17:48;8.80;48.40
13440;DHT22;6792;57.698;11.946;2023-02-28T01:20:17;8.80;49.00
13440;DHT22;6792;57.698;11.946;2023-02-28T01:22:47;8.80;48.90
13440;DHT22;6792;57.698;11.946;2023-02-28T01:25:16;8.70;48.90
13440;DHT22;6792;57.698;11.946;2023-02-28T01:27:45;8.70;48.90
13440;DHT22;6792;57.698;11.946;2023-02-28T01:30:15;8.70;48.90
13440;DHT22;6792;57.698;11.946;2023-02-28T01:32:46;8.70;48.30
13440;DHT22;6792;57.698;11.946;2023-02-28T01:35:15;8.70;48.40
13440;DHT22;6792;57.698;11.946;2023-02-28T01:37:44;8.70;49.00
13440;DHT22;6792;57.698;11.946;2023-02-28T01:40:14;8.70;48.90
13440;DHT22;6792;57.698;11.946;2023-02-28T01:42:44;8.70;48.90
13440;DHT22;6792;57.698;11.946;2023-02-28T01:45:25;8.60;48.90
13440;DHT22;6792;57.698;11.946;2023-02-28T01:47:59;8.60;48.90
13440;DHT22;6792;57.698;11.946;2023-02-28T01:50:29;8.60;49.00
13440;DHT22;6792;57.698;11.946;2023-02-28T01:53:02;8.60;49.00
13440;DHT22;6792;57.698;11.946;2023-02-28T01:55:32;8.60;49.10
13440;DHT22;6792;57.698;11.946;2023-02-28T01:58:04;8.50;49.10
13440;DHT22;6792;57.698;11.946;2023-02-28T02:00:33;8.50;49.10
13440;DHT22;6792;57.698;11.946;2023-02-28T02:03:06;8.50;49.10
13440;DHT22;6792;57.698;11.946;2023-02-28T02:05:38;8.50;48.70
13440;DHT22;6792;57.698;11.946;2023-02-28T02:08:10;8.50;49.30
13440;DHT22;6792;57.698;11.946;2023-02-28T02:13:29;8.50;48.70
13440;DHT22;6792;57.698;11.946;2023-02-28T02:16:02;8.50;49.30
13440;DHT22;6792;57.698;11.946;2023-02-28T02:18:34;8.40;49.20
13440;DHT22;6792;57.698;11.946;2023-02-28T02:21:30;8.40;48.70
13440;DHT22;6792;57.698;11.946;2023-02-28T02:24:13;8.40;49.20
13440;DHT22;6792;57.698;11.946;2023-02-28T02:27:09;8.30;48.80
13440;DHT22;6792;57.698;11.946;2023-02-28T02:38:33;8.10;49.10
13440;DHT22;6792;57.698;11.946;2023-02-28T02:41:08;8.10;49.00
13440;DHT22;6792;57.698;11.946;2023-02-28T02:43:41;8.20;49.50
13440;DHT22;6792;57.698;11.946;2023-02-28T02:46:14;8.20;48.90
13440;DHT22;6792;57.698;11.946;2023-02-28T02:48:44;8.20;49.40
13440;DHT22;6792;57.698;11.946;2023-02-28T02:51:16;8.10;49.30
13440;DHT22;6792;57.698;11.946;2023-02-28T02:53:49;8.20;49.40
13440;DHT22;6792;57.698;11.946;2023-02-28T02:56:21;8.20;49.40
13440;DHT22;6792;57.698;11.946;2023-02-28T02:58:51;8.10;49.40
13440;DHT22;6792;57.698;11.946;2023-02-28T03:01:23;8.10;49.30
13440;DHT22;6792;57.698;11.946;2023-02-28T03:03:58;8.10;49.30
13440;DHT22;6792;57.698;11.946;2023-02-28T03:06:28;8.10;49.40
13440;DHT22;6792;57.698;11.946;2023-02-28T03:08:57;8.10;49.40
13440;DHT22;6792;57.698;11.946;2023-02-28T03:11:26;8.10;49.40
13440;DHT22;6792;57.698;11.946;2023-02-28T03:20:35;8.20;49.50
13440;DHT22;6792;57.698;11.946;2023-02-28T03:23:17;8.10;49.00
13440;DHT22;6792;57.698;11.946;2023-02-28T03:25:56;8.10;49.50
13440;DHT22;6792;57.698;11.946;2023-02-28T03:28:31;8.00;49.60
13440;DHT22;6792;57.698;11.946;2023-02-28T03:31:06;8.00;49.60
13440;DHT22;6792;57.698;11.946;2023-02-28T03:33:38;8.00;49.00
13440;DHT22;6792;57.698;11.946;2023-02-28T03:36:11;8.00;49.60
13440;DHT22;6792;57.698;11.946;2023-02-28T03:38:44;8.00;48.90
13440;DHT22;6792;57.698;11.946;2023-02-28T03:41:16;8.00;48.90
13440;DHT22;6792;57.698;11.946;2023-02-28T03:43:49;8.00;48.90
13440;DHT22;6792;57.698;11.946;2023-02-28T03:46:21;8.00;49.40
13440;DHT22;6792;57.698;11.946;2023-02-28T03:48:55;8.00;49.50
13440;DHT22;6792;57.698;11.946;2023-02-28T03:51:25;8.00;49.60
13440;DHT22;6792;57.698;11.946;2023-02-28T03:53:58;8.00;49.50
13440;DHT22;6792;57.698;11.946;2023-02-28T03:56:30;8.00;49.50
13440;DHT22;6792;57.698;11.946;2023-02-28T03:59:02;8.00;49.50
13440;DHT22;6792;57.698;11.946;2023-02-28T04:01:35;8.00;49.40
13440;DHT22;6792;57.698;11.946;2023-02-28T04:04:04;8.00;49.40
13440;DHT22;6792;57.698;11.946;2023-02-28T04:06:34;8.00;49.50
13440;DHT22;6792;57.698;11.946;2023-02-28T04:09:04;7.90;49.40
13440;DHT22;6792;57.698;11.946;2023-02-28T04:11:35;7.90;48.90
13440;DHT22;6792;57.698;11.946;2023-02-28T04:14:05;7.90;49.40
13440;DHT22;6792;57.698;11.946;2023-02-28T04:16:36;7.90;50.00
13440;DHT22;6792;57.698;11.946;2023-02-28T04:19:07;7.90;49.40
13440;DHT22;6792;57.698;11.946;2023-02-28T04:21:37;7.90;49.50
13440;DHT22;6792;57.698;11.946;2023-02-28T04:24:08;7.90;49.60
13440;DHT22;6792;57.698;11.946;2023-02-28T04:26:40;7.90;49.50
13440;DHT22;6792;57.698;11.946;2023-02-28T04:29:11;7.90;50.10
13440;DHT22;6792;57.698;11.946;2023-02-28T04:31:41;7.90;49.50
13440;DHT22;6792;57.698;11.946;2023-02-28T04:34:10;7.90;49.40
13440;DHT22;6792;57.698;11.946;2023-02-28T04:36:39;7.90;49.50
13440;DHT22;6792;57.698;11.946;2023-02-28T04:39:08;7.90;49.40
13440;DHT22;6792;57.698;11.946;2023-02-28T04:41:38;7.90;49.40
13440;DHT22;6792;57.698;11.946;2023-02-28T04:44:07;7.90;49.40
13440;DHT22;6792;57.698;11.946;2023-02-28T04:46:36;7.90;49.50
13440;DHT22;6792;57.698;11.946;2023-02-28T04:49:05;7.90;49.50
13440;DHT22;6792;57.698;11.946;2023-02-28T04:51:34;7.90;49.60
13440;DHT22;6792;57.698;11.946;2023-02-28T04:54:03;7.80;49.50
13440;DHT22;6792;57.698;11.946;2023-02-28T04:56:32;7.80;49.50
13440;DHT22;6792;57.698;11.946;2023-02-28T04:59:01;7.80;49.00
13440;DHT22;6792;57.698;11.946;2023-02-28T05:01:33;7.80;49.50
13440;DHT22;6792;57.698;11.946;2023-02-28T05:04:03;7.80;49.50
13440;DHT22;6792;57.698;11.946;2023-02-28T05:06:34;7.80;49.50
13440;DHT22;6792;57.698;11.946;2023-02-28T05:09:03;7.80;49.50
13440;DHT22;6792;57.698;11.946;2023-02-28T05:11:33;7.80;49.50
13440;DHT22;6792;57.698;11.946;2023-02-28T05:14:04;7.80;49.50
13440;DHT22;6792;57.698;11.946;2023-02-28T05:16:34;7.80;49.50
13440;DHT22;6792;57.698;11.946;2023-02-28T05:19:05;7.80;49.50
13440;DHT22;6792;57.698;11.946;2023-02-28T05:21:36;7.80;50.10
13440;DHT22;6792;57.698;11.946;2023-02-28T05:24:08;7.70;49.60
13440;DHT22;6792;57.698;11.946;2023-02-28T05:26:40;7.70;49.60
13440;DHT22;6792;57.698;11.946;2023-02-28T05:29:11;7.70;49.60
13440;DHT22;6792;57.698;11.946;2023-02-28T05:31:41;7.70;49.60
13440;DHT22;6792;57.698;11.946;2023-02-28T05:34:10;7.70;49.60
13440;DHT22;6792;57.698;11.946;2023-02-28T05:36:40;7.70;49.60
13440;DHT22;6792;57.698;11.946;2023-02-28T05:39:09;7.70;49.60
13440;DHT22;6792;57.698;11.946;2023-02-28T05:41:41;7.70;49.50
13440;DHT22;6792;57.698;11.946;2023-02-28T05:44:11;7.70;49.50
13440;DHT22;6792;57.698;11.946;2023-02-28T05:46:40;8.00;49.70
13440;DHT22;6792;57.698;11.946;2023-02-28T05:49:09;7.70;49.50
13440;DHT22;6792;57.698;11.946;2023-02-28T05:51:38;7.70;49.50
13440;DHT22;6792;57.698;11.946;2023-02-28T05:54:08;7.70;49.50
13440;DHT22;6792;57.698;11.946;2023-02-28T05:56:37;7.70;49.50
13440;DHT22;6792;57.698;11.946;2023-02-28T05:59:07;7.70;49.50
13440;DHT22;6792;57.698;11.946;2023-02-28T06:01:40;7.70;49.60
13440;DHT22;6792;57.698;11.946;2023-02-28T06:04:10;7.70;49.60
13440;DHT22;6792;57.698;11.946;2023-02-28T06:06:41;7.70;49.10
13440;DHT22;6792;57.698;11.946;2023-02-28T06:09:10;7.70;49.20
13440;DHT22;6792;57.698;11.946;2023-02-28T06:11:40;7.70;49.70
13440;DHT22;6792;57.698;11.946;2023-02-28T06:16:56;7.70;49.10
13440;DHT22;6792;57.698;11.946;2023-02-28T06:19:26;7.80;49.70
13440;DHT22;6792;57.698;11.946;2023-02-28T06:21:55;7.80;49.60
13440;DHT22;6792;57.698;11.946;2023-02-28T06:24:26;7.80;49.60
13440;DHT22;6792;57.698;11.946;2023-02-28T06:26:56;7.80;49.50
13440;DHT22;6792;57.698;11.946;2023-02-28T06:29:26;7.80;49.50
13440;DHT22;6792;57.698;11.946;2023-02-28T06:31:55;7.70;49.40
13440;DHT22;6792;57.698;11.946;2023-02-28T06:34:24;7.70;49.50
13440;DHT22;6792;57.698;11.946;2023-02-28T06:36:53;7.70;49.50
13440;DHT22;6792;57.698;11.946;2023-02-28T06:39:23;7.70;49.60
13440;DHT22;6792;57.698;11.946;2023-02-28T06:41:52;7.70;49.00
13440;DHT22;6792;57.698;11.946;2023-02-28T06:44:24;7.70;49.60
13440;DHT22;6792;57.698;11.946;2023-02-28T06:46:53;7.70;49.60
13440;DHT22;6792;57.698;11.946;2023-02-28T06:49:22;7.80;49.70
13440;DHT22;6792;57.698;11.946;2023-02-28T06:51:52;7.80;49.10
13440;DHT22;6792;57.698;11.946;2023-02-28T06:54:21;7.80;49.60
13440;DHT22;6792;57.698;11.946;2023-02-28T06:56:50;7.80;49.50
13440;DHT22;6792;57.698;11.946;2023-02-28T06:59:20;7.80;49.60
13440;DHT22;6792;57.698;11.946;2023-02-28T07:01:49;7.80;49.60
13440;DHT22;6792;57.698;11.946;2023-02-28T07:04:19;7.80;49.60
13440;DHT22;6792;57.698;11.946;2023-02-28T07:06:48;7.80;49.60
13440;DHT22;6792;57.698;11.946;2023-02-28T07:09:27;7.80;49.60
13440;DHT22;6792;57.698;11.946;2023-02-28T07:11:57;7.80;49.60
13440;DHT22;6792;57.698;11.946;2023-02-28T07:14:28;7.80;49.60
13440;DHT22;6792;57.698;11.946;2023-02-28T07:16:57;7.80;49.70
13440;DHT22;6792;57.698;11.946;2023-02-28T07:19:26;7.90;49.80
13440;DHT22;6792;57.698;11.946;2023-02-28T07:21:56;7.90;49.80
13440;DHT22;6792;57.698;11.946;2023-02-28T07:24:26;7.90;49.10
13440;DHT22;6792;57.698;11.946;2023-02-28T07:26:56;8.00;49.20
13440;DHT22;6792;57.698;11.946;2023-02-28T07:29:25;8.00;49.70
13440;DHT22;6792;57.698;11.946;2023-02-28T07:31:54;8.00;49.70
13440;DHT22;6792;57.698;11.946;2023-02-28T07:34:26;8.10;49.60
13440;DHT22;6792;57.698;11.946;2023-02-28T07:36:56;8.10;49.60
13440;DHT22;6792;57.698;11.946;2023-02-28T07:39:25;8.10;49.70
13440;DHT22;6792;57.698;11.946;2023-02-28T07:41:54;8.10;49.70
13440;DHT22;6792;57.698;11.946;2023-02-28T07:44:23;8.20;49.80
13440;DHT22;6792;57.698;11.946;2023-02-28T07:46:52;8.20;49.90
13440;DHT22;6792;57.698;11.946;2023-02-28T07:49:21;8.20;49.30
13440;DHT22;6792;57.698;11.946;2023-02-28T07:51:50;8.20;50.00
13440;DHT22;6792;57.698;11.946;2023-02-28T07:54:19;8.30;50.10
13440;DHT22;6792;57.698;11.946;2023-02-28T07:56:48;8.30;50.10
13440;DHT22;6792;57.698;11.946;2023-02-28T07:59:18;8.40;50.20
13440;DHT22;6792;57.698;11.946;2023-02-28T08:01:47;8.40;50.30
13440;DHT22;6792;57.698;11.946;2023-02-28T08:04:18;8.40;50.40
13440;DHT22;6792;57.698;11.946;2023-02-28T08:06:47;8.50;50.50
13440;DHT22;6792;57.698;11.946;2023-02-28T08:09:18;8.50;51.00
13440;DHT22;6792;57.698;11.946;2023-02-28T08:11:47;8.60;50.70
13440;DHT22;6792;57.698;11.946;2023-02-28T08:14:20;8.60;50.70
13440;DHT22;6792;57.698;11.946;2023-02-28T08:16:53;8.70;50.90
13440;DHT22;6792;57.698;11.946;2023-02-28T08:19:25;8.70;50.40
13440;DHT22;6792;57.698;11.946;2023-02-28T08:21:54;8.70;51.00
13440;DHT22;6792;57.698;11.946;2023-02-28T08:24:23;8.70;51.00
13440;DHT22;6792;57.698;11.946;2023-02-28T08:26:52;8.80;51.10
13440;DHT22;6792;57.698;11.946;2023-02-28T08:29:22;8.80;51.20
13440;DHT22;6792;57.698;11.946;2023-02-28T08:31:51;8.80;51.20
13440;DHT22;6792;57.698;11.946;2023-02-28T08:34:20;8.90;51.30
13440;DHT22;6792;57.698;11.946;2023-02-28T08:36:49;8.90;51.30
13440;DHT22;6792;57.698;11.946;2023-02-28T08:39:18;9.00;51.30
13440;DHT22;6792;57.698;11.946;2023-02-28T08:41:48;9.10;51.40
13440;DHT22;6792;57.698;11.946;2023-02-28T08:44:17;9.10;51.40
13440;DHT22;6792;57.698;11.946;2023-02-28T08:46:46;9.10;51.50
13440;DHT22;6792;57.698;11.946;2023-02-28T08:49:16;9.10;50.80
13440;DHT22;6792;57.698;11.946;2023-02-28T08:51:46;9.10;51.50
13440;DHT22;6792;57.698;11.946;2023-02-28T08:54:15;9.10;51.50
13440;DHT22;6792;57.698;11.946;2023-02-28T08:56:46;9.10;51.50
13440;DHT22;6792;57.698;11.946;2023-02-28T08:59:15;9.10;51.00
13440;DHT22;6792;57.698;11.946;2023-02-28T09:01:44;9.20;51.60
13440;DHT22;6792;57.698;11.946;2023-02-28T09:04:13;9.20;51.60
13440;DHT22;6792;57.698;11.946;2023-02-28T09:06:42;9.20;51.70
13440;DHT22;6792;57.698;11.946;2023-02-28T09:09:12;9.30;51.70
13440;DHT22;6792;57.698;11.946;2023-02-28T09:11:41;9.30;51.70
13440;DHT22;6792;57.698;11.946;2023-02-28T09:14:12;9.40;51.70
13440;DHT22;6792;57.698;11.946;2023-02-28T09:16:41;9.40;51.80
13440;DHT22;6792;57.698;11.946;2023-02-28T09:19:12;9.40;51.70
13440;DHT22;6792;57.698;11.946;2023-02-28T09:21:42;9.40;51.20
13440;DHT22;6792;57.698;11.946;2023-02-28T09:24:11;9.50;52.40
13440;DHT22;6792;57.698;11.946;2023-02-28T09:26:42;9.60;51.90
13440;DHT22;6792;57.698;11.946;2023-02-28T09:29:11;9.60;52.00
13440;DHT22;6792;57.698;11.946;2023-02-28T09:31:43;9.60;52.00
13440;DHT22;6792;57.698;11.946;2023-02-28T09:34:15;9.70;52.10
13440;DHT22;6792;57.698;11.946;2023-02-28T09:36:46;9.70;52.10
13440;DHT22;6792;57.698;11.946;2023-02-28T09:39:16;9.70;52.00
13440;DHT22;6792;57.698;11.946;2023-02-28T09:41:47;9.80;52.00
13440;DHT22;6792;57.698;11.946;2023-02-28T09:44:22;9.90;52.00
13440;DHT22;6792;57.698;11.946;2023-02-28T09:46:54;9.90;52.00
13440;DHT22;6792;57.698;11.946;2023-02-28T09:49:28;9.90;52.10
13440;DHT22;6792;57.698;11.946;2023-02-28T09:52:03;10.00;52.10
13440;DHT22;6792;57.698;11.946;2023-02-28T09:54:33;10.10;52.20
13440;DHT22;6792;57.698;11.946;2023-02-28T09:57:06;10.10;52.20
13440;DHT22;6792;57.698;11.946;2023-02-28T09:59:49;10.10;52.20
13440;DHT22;6792;57.698;11.946;2023-02-28T10:02:38;10.10;52.10
13440;DHT22;6792;57.698;11.946;2023-02-28T10:04:58;10.10;52.20
13440;DHT22;6792;57.698;11.946;2023-02-28T10:07:40;10.20;52.20
13440;DHT22;6792;57.698;11.946;2023-02-28T10:10:15;10.20;51.60
13440;DHT22;6792;57.698;11.946;2023-02-28T10:12:46;10.30;52.20
13440;DHT22;6792;57.698;11.946;2023-02-28T10:15:16;10.30;52.20
13440;DHT22;6792;57.698;11.946;2023-02-28T10:17:47;10.40;52.20
13440;DHT22;6792;57.698;11.946;2023-02-28T10:20:20;10.40;52.20
13440;DHT22;6792;57.698;11.946;2023-02-28T10:22:57;10.40;52.20
13440;DHT22;6792;57.698;11.946;2023-02-28T10:25:27;10.50;52.20
13440;DHT22;6792;57.698;11.946;2023-02-28T10:28:00;10.50;52.20
13440;DHT22;6792;57.698;11.946;2023-02-28T10:30:29;10.50;51.60
13440;DHT22;6792;57.698;11.946;2023-02-28T10:32:58;10.50;52.10
13440;DHT22;6792;57.698;11.946;2023-02-28T10:35:27;10.60;52.20
13440;DHT22;6792;57.698;11.946;2023-02-28T10:37:58;10.60;52.20
13440;DHT22;6792;57.698;11.946;2023-02-28T10:40:31;10.70;52.20
13440;DHT22;6792;57.698;11.946;2023-02-28T10:43:02;10.70;52.20
13440;DHT22;6792;57.698;11.946;2023-02-28T10:45:33;10.70;52.20
13440;DHT22;6792;57.698;11.946;2023-02-28T10:48:06;10.70;52.20
13440;DHT22;6792;57.698;11.946;2023-02-28T10:50:42;10.70;52.30
13440;DHT22;6792;57.698;11.946;2023-02-28T10:53:21;10.70;52.30
13440;DHT22;6792;57.698;11.946;2023-02-28T10:55:51;10.70;51.70
13440;DHT22;6792;57.698;11.946;2023-02-28T10:58:24;10.70;52.30
13440;DHT22;6792;57.698;11.946;2023-02-28T11:00:53;10.70;52.40
13440;DHT22;6792;57.698;11.946;2023-02-28T11:03:31;10.80;52.40
13440;DHT22;6792;57.698;11.946;2023-02-28T11:06:06;10.90;52.40
13440;DHT22;6792;57.698;11.946;2023-02-28T11:08:45;10.90;51.80
13440;DHT22;6792;57.698;11.946;2023-02-28T11:11:14;10.90;52.30
13440;DHT22;6792;57.698;11.946;2023-02-28T11:13:46;11.00;51.80
13440;DHT22;6792;57.698;11.946;2023-02-28T11:16:17;11.10;52.30
13440;DHT22;6792;57.698;11.946;2023-02-28T11:18:50;11.10;52.40
13440;DHT22;6792;57.698;11.946;2023-02-28T11:21:23;11.20;51.70
13440;DHT22;6792;57.698;11.946;2023-02-28T11:23:56;11.20;51.70
13440;DHT22;6792;57.698;11.946;2023-02-28T11:26:43;11.20;51.70
13440;DHT22;6792;57.698;11.946;2023-02-28T11:29:19;11.20;51.80
13440;DHT22;6792;57.698;11.946;2023-02-28T11:35:02;11.30;52.00
13440;DHT22;6792;57.698;11.946;2023-02-28T11:37:32;11.40;52.50
13440;DHT22;6792;57.698;11.946;2023-02-28T11:40:02;11.50;52.30
13440;DHT22;6792;57.698;11.946;2023-02-28T11:42:45;11.60;52.30
13440;DHT22;6792;57.698;11.946;2023-02-28T11:45:31;11.60;51.70
13440;DHT22;6792;57.698;11.946;2023-02-28T11:48:04;11.60;52.30
13440;DHT22;6792;57.698;11.946;2023-02-28T11:50:46;11.70;52.30
13440;DHT22;6792;57.698;11.946;2023-02-28T11:53:22;11.70;51.70
13440;DHT22;6792;57.698;11.946;2023-02-28T11:55:56;11.80;52.20
13440;DHT22;6792;57.698;11.946;2023-02-28T11:58:35;11.90;51.70
13440;DHT22;6792;57.698;11.946;2023-02-28T12:01:15;11.90;51.60
13440;DHT22;6792;57.698;11.946;2023-02-28T12:03:49;12.00;51.50
13440;DHT22;6792;57.698;11.946;2023-02-28T12:06:22;12.10;52.00
13440;DHT22;6792;57.698;11.946;2023-02-28T12:11:52;12.30;51.80
13440;DHT22;6792;57.698;11.946;2023-02-28T12:17:26;12.40;51.60
13440;DHT22;6792;57.698;11.946;2023-02-28T12:20:02;12.40;51.50
13440;DHT22;6792;57.698;11.946;2023-02-28T12:22:33;12.50;51.40
13440;DHT22;6792;57.698;11.946;2023-02-28T12:25:22;12.60;51.90
13440;DHT22;6792;57.698;11.946;2023-02-28T12:27:53;12.60;50.70
13440;DHT22;6792;57.698;11.946;2023-02-28T12:30:25;12.70;51.40
13440;DHT22;6792;57.698;11.946;2023-02-28T12:33:00;12.90;51.40
13440;DHT22;6792;57.698;11.946;2023-02-28T12:35:32;13.00;51.10
13440;DHT22;6792;57.698;11.946;2023-02-28T12:40:47;13.30;50.30
13440;DHT22;6792;57.698;11.946;2023-02-28T12:43:18;13.50;50.70
13440;DHT22;6792;57.698;11.946;2023-02-28T12:45:50;13.70;50.60
13440;DHT22;6792;57.698;11.946;2023-02-28T12:48:25;13.80;50.40
13440;DHT22;6792;57.698;11.946;2023-02-28T12:50:55;13.90;50.20
13440;DHT22;6792;57.698;11.946;2023-02-28T12:53:27;14.00;50.00
13440;DHT22;6792;57.698;11.946;2023-02-28T12:56:04;14.20;49.90
13440;DHT22;6792;57.698;11.946;2023-02-28T12:58:36;14.30;49.10
13440;DHT22;6792;57.698;11.946;2023-02-28T13:01:36;14.40;49.00
13440;DHT22;6792;57.698;11.946;2023-02-28T13:04:43;14.50;49.50
13440;DHT22;6792;57.698;11.946;2023-02-28T13:10:12;14.70;49.60
13440;DHT22;6792;57.698;11.946;2023-02-28T13:12:49;14.90;49.40
13440;DHT22;6792;57.698;11.946;2023-02-28T13:15:21;15.10;49.00
13440;DHT22;6792;57.698;11.946;2023-02-28T13:17:54;15.30;48.80
13440;DHT22;6792;57.698;11.946;2023-02-28T13:20:25;15.50;48.40
13440;DHT22;6792;57.698;11.946;2023-02-28T13:22:56;15.60;48.10
13440;DHT22;6792;57.698;11.946;2023-02-28T13:25:53;15.80;47.90
13440;DHT22;6792;57.698;11.946;2023-02-28T13:32:27;16.20;46.70
13440;DHT22;6792;57.698;11.946;2023-02-28T13:38:34;16.20;46.50
13440;DHT22;6792;57.698;11.946;2023-02-28T13:41:45;16.20;46.20
13440;DHT22;6792;57.698;11.946;2023-02-28T13:44:19;16.10;46.90
13440;DHT22;6792;57.698;11.946;2023-02-28T13:49:56;16.00;46.10
13440;DHT22;6792;57.698;11.946;2023-02-28T13:52:26;15.80;46.80
13440;DHT22;6792;57.698;11.946;2023-02-28T13:55:25;15.90;46.70
13440;DHT22;6792;57.698;11.946;2023-02-28T13:58:02;15.90;46.50
13440;DHT22;6792;57.698;11.946;2023-02-28T14:00:42;15.90;45.80
13440;DHT22;6792;57.698;11.946;2023-02-28T14:03:22;15.90;46.20
13440;DHT22;6792;57.698;11.946;2023-02-28T14:06:08;15.80;45.60
13440;DHT22;6792;57.698;11.946;2023-02-28T14:08:38;15.80;46.20
13440;DHT22;6792;57.698;11.946;2023-02-28T14:11:23;15.70;45.60
13440;DHT22;6792;57.698;11.946;2023-02-28T14:16:17;15.50;45.60
13440;DHT22;6792;57.698;11.946;2023-02-28T14:18:51;15.50;46.30
13440;DHT22;6792;57.698;11.946;2023-02-28T14:21:29;15.40;46.30
13440;DHT22;6792;57.698;11.946;2023-02-28T14:24:29;15.40;45.80
13440;DHT22;6792;57.698;11.946;2023-02-28T14:27:15;15.20;45.70
13440;DHT22;6792;57.698;11.946;2023-02-28T14:33:00;14.90;45.90
13440;DHT22;6792;57.698;11.946;2023-02-28T14:35:52;14.80;46.60
13440;DHT22;6792;57.698;11.946;2023-02-28T14:38:24;14.70;46.70
13440;DHT22;6792;57.698;11.946;2023-02-28T14:40:56;14.50;46.30
13440;DHT22;6792;57.698;11.946;2023-02-28T14:43:27;14.50;47.00
13440;DHT22;6792;57.698;11.946;2023-02-28T14:45:59;14.50;47.00
13440;DHT22;6792;57.698;11.946;2023-02-28T14:48:29;14.50;47.60
13440;DHT22;6792;57.698;11.946;2023-02-28T14:50:59;14.50;47.00
13440;DHT22;6792;57.698;11.946;2023-02-28T14:53:36;14.40;47.00
13440;DHT22;6792;57.698;11.946;2023-02-28T14:56:01;14.40;46.50
13440;DHT22;6792;57.698;11.946;2023-02-28T14:58:32;14.40;47.10
13440;DHT22;6792;57.698;11.946;2023-02-28T15:01:03;14.30;46.60
13440;DHT22;6792;57.698;11.946;2023-02-28T15:03:35;14.30;46.70
13440;DHT22;6792;57.698;11.946;2023-02-28T15:06:12;14.30;47.30
13440;DHT22;6792;57.698;11.946;2023-02-28T15:08:39;14.20;46.70
13440;DHT22;6792;57.698;11.946;2023-02-28T15:11:12;14.20;47.30
13440;DHT22;6792;57.698;11.946;2023-02-28T15:13:44;14.20;47.30
13440;DHT22;6792;57.698;11.946;2023-02-28T15:16:16;14.10;47.40
13440;DHT22;6792;57.698;11.946;2023-02-28T15:18:48;14.10;47.40
13440;DHT22;6792;57.698;11.946;2023-02-28T15:21:20;14.00;46.80
13440;DHT22;6792;57.698;11.946;2023-02-28T15:23:52;14.00;46.90
13440;DHT22;6792;57.698;11.946;2023-02-28T15:26:23;14.00;47.50
13440;DHT22;6792;57.698;11.946;2023-02-28T15:28:57;14.00;47.60
13440;DHT22;6792;57.698;11.946;2023-02-28T15:31:28;13.90;47.50
13440;DHT22;6792;57.698;11.946;2023-02-28T15:34:04;13.90;47.20
13440;DHT22;6792;57.698;11.946;2023-02-28T15:36:31;13.80;47.10
13440;DHT22;6792;57.698;11.946;2023-02-28T15:39:01;13.80;47.00
13440;DHT22;6792;57.698;11.946;2023-02-28T15:41:37;13.80;47.10
13440;DHT22;6792;57.698;11.946;2023-02-28T15:44:25;13.80;47.70
13440;DHT22;6792;57.698;11.946;2023-02-28T15:47:02;13.70;47.10
13440;DHT22;6792;57.698;11.946;2023-02-28T15:49:37;13.70;47.30
13440;DHT22;6792;57.698;11.946;2023-02-28T15:52:13;13.60;47.90
13440;DHT22;6792;57.698;11.946;2023-02-28T15:54:44;13.60;47.30
13440;DHT22;6792;57.698;11.946;2023-02-28T15:57:17;13.60;47.90
13440;DHT22;6792;57.698;11.946;2023-02-28T15:59:50;13.50;47.20
13440;DHT22;6792;57.698;11.946;2023-02-28T16:02:21;13.50;47.30
13440;DHT22;6792;57.698;11.946;2023-02-28T16:05:13;13.50;47.90
13440;DHT22;6792;57.698;11.946;2023-02-28T16:07:34;13.50;47.90
13440;DHT22;6792;57.698;11.946;2023-02-28T16:10:04;13.50;47.90
13440;DHT22;6792;57.698;11.946;2023-02-28T16:12:35;13.40;47.90
13440;DHT22;6792;57.698;11.946;2023-02-28T16:15:07;13.40;47.90
13440;DHT22;6792;57.698;11.946;2023-02-28T16:17:38;13.40;47.90
13440;DHT22;6792;57.698;11.946;2023-02-28T16:20:15;13.30;47.90
13440;DHT22;6792;57.698;11.946;2023-02-28T16:22:44;13.30;48.00
13440;DHT22;6792;57.698;11.946;2023-02-28T16:25:15;13.30;47.90
13440;DHT22;6792;57.698;11.946;2023-02-28T16:27:46;13.20;48.00
13440;DHT22;6792;57.698;11.946;2023-02-28T16:30:20;13.20;48.00
13440;DHT22;6792;57.698;11.946;2023-02-28T16:32:50;13.20;48.10
13440;DHT22;6792;57.698;11.946;2023-02-28T16:35:20;13.10;48.00
13440;DHT22;6792;57.698;11.946;2023-02-28T16:37:51;13.10;48.00
13440;DHT22;6792;57.698;11.946;2023-02-28T16:40:23;13.10;48.00
13440;DHT22;6792;57.698;11.946;2023-02-28T16:42:55;13.10;48.10
13440;DHT22;6792;57.698;11.946;2023-02-28T16:45:26;13.00;47.50
13440;DHT22;6792;57.698;11.946;2023-02-28T16:47:55;13.00;48.10
13440;DHT22;6792;57.698;11.946;2023-02-28T16:50:26;13.00;48.10
13440;DHT22;6792;57.698;11.946;2023-02-28T16:52:56;12.90;48.10
13440;DHT22;6792;57.698;11.946;2023-02-28T16:55:26;12.90;48.10
13440;DHT22;6792;57.698;11.946;2023-02-28T16:57:58;12.90;48.20
13440;DHT22;6792;57.698;11.946;2023-02-28T17:00:28;12.90;48.20
13440;DHT22;6792;57.698;11.946;2023-02-28T17:02:59;12.80;48.20